sensor_id;sensor_type;location;lat;lon;timestamp;P1;durP1;ratioP1;P2;durP2;ratioP2
7324;SDS011;3703;48.016;7.802;2022-07-29T00:00:30;5.50;;;5.00;;
7324;SDS011;3703;48.016;7.802;2022-07-29T00:03:18;5.87;;;4.83;;
7324;SDS011;3703;48.016;7.802;2022-07-29T00:06:07;6.20;;;5.30;;
7324;SDS011;3703;48.016;7.802;2022-07-29T00:08:54;5.10;;;4.60;;
7324;SDS011;3703;48.016;7.802;2022-07-29T00:11:42;5.37;;;4.60;;
7324;SDS011;3703;48.016;7.802;2022-07-29T00:14:29;5.83;;;5.27;;
7324;SDS011;3703;48.016;7.802;2022-07-29T00:17:17;4.90;;;4.50;;
7324;SDS011;3703;48.016;7.802;2022-07-29T00:20:05;5.13;;;4.63;;
7324;SDS011;3703;48.016;7.802;2022-07-29T00:22:56;5.17;;;4.67;;
7324;SDS011;3703;48.016;7.802;2022-07-29T00:25:44;7.10;;;5.67;;
7324;SDS011;3703;48.016;7.802;2022-07-29T00:28:32;5.60;;;5.10;;
7324;SDS011;3703;48.016;7.802;2022-07-29T00:31:19;5.67;;;4.80;;
7324;SDS011;3703;48.016;7.802;2022-07-29T00:34:07;4.37;;;4.00;;
7324;SDS011;3703;48.016;7.802;2022-07-29T00:37:14;5.30;;;4.80;;
7324;SDS011;3703;48.016;7.802;2022-07-29T00:40:03;5.93;;;5.27;;
7324;SDS011;3703;48.016;7.802;2022-07-29T00:42:52;5.83;;;5.17;;
7324;SDS011;3703;48.016;7.802;2022-07-29T00:45:40;6.60;;;4.90;;
7324;SDS011;3703;48.016;7.802;2022-07-29T00:48:28;6.83;;;5.10;;
7324;SDS011;3703;48.016;7.802;2022-07-29T00:51:15;5.00;;;4.60;;
7324;SDS011;3703;48.016;7.802;2022-07-29T00:54:03;5.80;;;5.23;;
7324;SDS011;3703;48.016;7.802;2022-07-29T00:56:56;5.43;;;4.90;;
7324;SDS011;3703;48.016;7.802;2022-07-29T00:59:44;5.80;;;4.93;;
7324;SDS011;3703;48.016;7.802;2022-07-29T01:02:32;5.83;;;5.33;;
7324;SDS011;3703;48.016;7.802;2022-07-29T01:05:20;5.30;;;4.80;;
7324;SDS011;3703;48.016;7.802;2022-07-29T01:08:11;6.43;;;5.13;;
7324;SDS011;3703;48.016;7.802;2022-07-29T01:11:00;5.20;;;4.60;;
7324;SDS011;3703;48.016;7.802;2022-07-29T01:13:50;5.47;;;4.97;;
7324;SDS011;3703;48.016;7.802;2022-07-29T01:16:40;4.67;;;4.27;;
7324;SDS011;3703;48.016;7.802;2022-07-29T01:19:41;6.73;;;4.80;;
7324;SDS011;3703;48.016;7.802;2022-07-29T01:22:42;5.13;;;4.63;;
7324;SDS011;3703;48.016;7.802;2022-07-29T01:26:04;5.43;;;4.93;;
7324;SDS011;3703;48.016;7.802;2022-07-29T01:29:24;5.73;;;5.20;;
7324;SDS011;3703;48.016;7.802;2022-07-29T01:32:18;5.57;;;5.03;;
7324;SDS011;3703;48.016;7.802;2022-07-29T01:35:10;7.00;;;4.77;;
7324;SDS011;3703;48.016;7.802;2022-07-29T01:38:05;5.60;;;5.07;;
7324;SDS011;3703;48.016;7.802;2022-07-29T01:40:58;6.10;;;4.97;;
7324;SDS011;3703;48.016;7.802;2022-07-29T01:43:54;5.50;;;5.00;;
7324;SDS011;3703;48.016;7.802;2022-07-29T01:46:49;5.83;;;5.27;;
7324;SDS011;3703;48.016;7.802;2022-07-29T01:49:46;5.50;;;5.00;;
7324;SDS011;3703;48.016;7.802;2022-07-29T01:52:39;6.53;;;5.27;;
7324;SDS011;3703;48.016;7.802;2022-07-29T01:55:34;5.60;;;5.07;;
7324;SDS011;3703;48.016;7.802;2022-07-29T01:58:25;5.60;;;5.10;;
7324;SDS011;3703;48.016;7.802;2022-07-29T02:01:16;6.50;;;5.07;;
7324;SDS011;3703;48.016;7.802;2022-07-29T02:04:07;5.87;;;5.27;;
7324;SDS011;3703;48.016;7.802;2022-07-29T02:06:58;6.93;;;5.23;;
7324;SDS011;3703;48.016;7.802;2022-07-29T02:09:53;6.13;;;5.50;;
7324;SDS011;3703;48.016;7.802;2022-07-29T02:12:42;6.07;;;5.47;;
7324;SDS011;3703;48.016;7.802;2022-07-29T02:15:32;6.70;;;5.13;;
7324;SDS011;3703;48.016;7.802;2022-07-29T02:18:21;6.63;;;4.73;;
7324;SDS011;3703;48.016;7.802;2022-07-29T02:21:13;5.30;;;4.53;;
7324;SDS011;3703;48.016;7.802;2022-07-29T02:24:08;7.03;;;5.30;;
7324;SDS011;3703;48.016;7.802;2022-07-29T02:26:59;7.50;;;5.27;;
7324;SDS011;3703;48.016;7.802;2022-07-29T02:29:49;5.90;;;5.30;;
7324;SDS011;3703;48.016;7.802;2022-07-29T02:32:39;5.93;;;5.43;;
7324;SDS011;3703;48.016;7.802;2022-07-29T02:35:28;6.47;;;4.80;;
7324;SDS011;3703;48.016;7.802;2022-07-29T02:38:17;6.20;;;5.60;;
7324;SDS011;3703;48.016;7.802;2022-07-29T02:41:40;7.63;;;5.50;;
7324;SDS011;3703;48.016;7.802;2022-07-29T02:44:31;5.63;;;4.83;;
7324;SDS011;3703;48.016;7.802;2022-07-29T02:47:20;6.07;;;5.20;;
7324;SDS011;3703;48.016;7.802;2022-07-29T02:50:14;6.40;;;5.53;;
7324;SDS011;3703;48.016;7.802;2022-07-29T02:53:07;6.83;;;5.70;;
7324;SDS011;3703;48.016;7.802;2022-07-29T02:56:04;6.23;;;5.27;;
7324;SDS011;3703;48.016;7.802;2022-07-29T02:58:58;7.20;;;5.50;;
7324;SDS011;3703;48.016;7.802;2022-07-29T03:01:51;5.73;;;5.23;;
7324;SDS011;3703;48.016;7.802;2022-07-29T03:04:41;5.30;;;4.80;;
7324;SDS011;3703;48.016;7.802;2022-07-29T03:07:30;6.93;;;5.40;;
7324;SDS011;3703;48.016;7.802;2022-07-29T03:10:20;5.60;;;5.03;;
7324;SDS011;3703;48.016;7.802;2022-07-29T03:13:10;5.67;;;5.17;;
7324;SDS011;3703;48.016;7.802;2022-07-29T03:15:59;5.63;;;5.13;;
7324;SDS011;3703;48.016;7.802;2022-07-29T03:18:48;5.00;;;4.60;;
7324;SDS011;3703;48.016;7.802;2022-07-29T03:21:36;5.60;;;5.10;;
7324;SDS011;3703;48.016;7.802;2022-07-29T03:24:24;5.80;;;5.20;;
7324;SDS011;3703;48.016;7.802;2022-07-29T03:27:14;5.90;;;5.40;;
7324;SDS011;3703;48.016;7.802;2022-07-29T03:30:03;5.70;;;5.10;;
7324;SDS011;3703;48.016;7.802;2022-07-29T03:32:52;5.47;;;4.97;;
7324;SDS011;3703;48.016;7.802;2022-07-29T03:35:40;5.93;;;5.43;;
7324;SDS011;3703;48.016;7.802;2022-07-29T03:38:29;6.03;;;5.27;;
7324;SDS011;3703;48.016;7.802;2022-07-29T03:41:20;6.67;;;5.40;;
7324;SDS011;3703;48.016;7.802;2022-07-29T03:44:11;5.50;;;5.00;;
7324;SDS011;3703;48.016;7.802;2022-07-29T03:47:03;5.37;;;4.87;;
7324;SDS011;3703;48.016;7.802;2022-07-29T03:49:54;6.00;;;5.20;;
7324;SDS011;3703;48.016;7.802;2022-07-29T03:52:47;6.33;;;5.07;;
7324;SDS011;3703;48.016;7.802;2022-07-29T03:55:36;5.57;;;5.07;;
7324;SDS011;3703;48.016;7.802;2022-07-29T03:58:31;5.40;;;4.80;;
7324;SDS011;3703;48.016;7.802;2022-07-29T04:01:20;5.87;;;5.37;;
7324;SDS011;3703;48.016;7.802;2022-07-29T04:04:10;6.30;;;5.13;;
7324;SDS011;3703;48.016;7.802;2022-07-29T04:06:58;5.80;;;5.20;;
7324;SDS011;3703;48.016;7.802;2022-07-29T04:09:46;5.87;;;5.13;;
7324;SDS011;3703;48.016;7.802;2022-07-29T04:12:33;5.67;;;5.10;;
7324;SDS011;3703;48.016;7.802;2022-07-29T04:15:21;6.30;;;5.33;;
7324;SDS011;3703;48.016;7.802;2022-07-29T04:18:09;5.53;;;5.03;;
7324;SDS011;3703;48.016;7.802;2022-07-29T04:20:58;8.87;;;5.40;;
7324;SDS011;3703;48.016;7.802;2022-07-29T04:23:46;6.10;;;5.50;;
7324;SDS011;3703;48.016;7.802;2022-07-29T04:26:35;7.13;;;5.40;;
7324;SDS011;3703;48.016;7.802;2022-07-29T04:29:22;5.77;;;5.23;;
7324;SDS011;3703;48.016;7.802;2022-07-29T04:32:10;5.73;;;4.87;;
7324;SDS011;3703;48.016;7.802;2022-07-29T04:34:58;7.57;;;5.63;;
7324;SDS011;3703;48.016;7.802;2022-07-29T04:37:47;5.70;;;5.10;;
7324;SDS011;3703;48.016;7.802;2022-07-29T04:40:35;6.30;;;5.70;;
7324;SDS011;3703;48.016;7.802;2022-07-29T04:43:23;7.87;;;5.37;;
7324;SDS011;3703;48.016;7.802;2022-07-29T04:46:10;6.53;;;5.83;;
7324;SDS011;3703;48.016;7.802;2022-07-29T04:48:58;6.33;;;5.73;;
7324;SDS011;3703;48.016;7.802;2022-07-29T04:51:46;5.80;;;5.30;;
7324;SDS011;3703;48.016;7.802;2022-07-29T04:54:35;5.60;;;5.00;;
7324;SDS011;3703;48.016;7.802;2022-07-29T04:57:22;6.37;;;5.33;;
7324;SDS011;3703;48.016;7.802;2022-07-29T05:00:10;7.47;;;5.20;;
7324;SDS011;3703;48.016;7.802;2022-07-29T05:02:59;5.93;;;5.07;;
7324;SDS011;3703;48.016;7.802;2022-07-29T05:05:47;7.70;;;5.37;;
7324;SDS011;3703;48.016;7.802;2022-07-29T05:08:34;14.17;;;5.93;;
7324;SDS011;3703;48.016;7.802;2022-07-29T05:11:24;6.63;;;5.93;;
7324;SDS011;3703;48.016;7.802;2022-07-29T05:14:11;5.70;;;5.20;;
7324;SDS011;3703;48.016;7.802;2022-07-29T05:16:59;5.67;;;5.17;;
7324;SDS011;3703;48.016;7.802;2022-07-29T05:19:47;5.63;;;5.10;;
7324;SDS011;3703;48.016;7.802;2022-07-29T05:22:36;5.17;;;4.60;;
7324;SDS011;3703;48.016;7.802;2022-07-29T05:25:24;6.03;;;5.00;;
7324;SDS011;3703;48.016;7.802;2022-07-29T05:28:14;5.90;;;4.30;;
7324;SDS011;3703;48.016;7.802;2022-07-29T05:31:01;5.83;;;5.23;;
7324;SDS011;3703;48.016;7.802;2022-07-29T05:33:49;8.93;;;5.43;;
7324;SDS011;3703;48.016;7.802;2022-07-29T05:36:37;5.73;;;5.03;;
7324;SDS011;3703;48.016;7.802;2022-07-29T05:39:25;5.53;;;5.03;;
7324;SDS011;3703;48.016;7.802;2022-07-29T05:42:12;5.70;;;5.30;;
7324;SDS011;3703;48.016;7.802;2022-07-29T05:45:01;5.50;;;5.00;;
7324;SDS011;3703;48.016;7.802;2022-07-29T05:47:50;6.87;;;5.30;;
7324;SDS011;3703;48.016;7.802;2022-07-29T05:50:38;5.80;;;5.20;;
7324;SDS011;3703;48.016;7.802;2022-07-29T05:53:25;6.63;;;5.63;;
7324;SDS011;3703;48.016;7.802;2022-07-29T05:56:13;6.93;;;5.17;;
7324;SDS011;3703;48.016;7.802;2022-07-29T05:59:01;6.77;;;5.43;;
7324;SDS011;3703;48.016;7.802;2022-07-29T06:01:50;5.73;;;4.97;;
7324;SDS011;3703;48.016;7.802;2022-07-29T06:04:37;5.80;;;5.20;;
7324;SDS011;3703;48.016;7.802;2022-07-29T06:07:25;5.60;;;5.10;;
7324;SDS011;3703;48.016;7.802;2022-07-29T06:10:13;6.10;;;4.83;;
7324;SDS011;3703;48.016;7.802;2022-07-29T06:13:00;5.00;;;4.60;;
7324;SDS011;3703;48.016;7.802;2022-07-29T06:15:48;9.30;;;5.13;;
7324;SDS011;3703;48.016;7.802;2022-07-29T06:18:37;7.23;;;5.17;;
7324;SDS011;3703;48.016;7.802;2022-07-29T06:21:25;5.83;;;4.90;;
7324;SDS011;3703;48.016;7.802;2022-07-29T06:24:12;5.50;;;4.87;;
7324;SDS011;3703;48.016;7.802;2022-07-29T06:27:02;7.57;;;4.90;;
7324;SDS011;3703;48.016;7.802;2022-07-29T06:29:49;9.07;;;5.03;;
7324;SDS011;3703;48.016;7.802;2022-07-29T06:32:37;6.07;;;4.83;;
7324;SDS011;3703;48.016;7.802;2022-07-29T06:35:26;5.97;;;4.80;;
7324;SDS011;3703;48.016;7.802;2022-07-29T06:38:14;10.60;;;5.60;;
7324;SDS011;3703;48.016;7.802;2022-07-29T06:41:03;22.97;;;6.57;;
7324;SDS011;3703;48.016;7.802;2022-07-29T06:43:57;7.97;;;4.80;;
7324;SDS011;3703;48.016;7.802;2022-07-29T06:46:45;5.80;;;5.07;;
7324;SDS011;3703;48.016;7.802;2022-07-29T06:49:34;6.47;;;4.47;;
7324;SDS011;3703;48.016;7.802;2022-07-29T06:52:23;4.73;;;4.23;;
7324;SDS011;3703;48.016;7.802;2022-07-29T06:55:11;5.27;;;4.60;;
7324;SDS011;3703;48.016;7.802;2022-07-29T06:57:59;4.87;;;4.43;;
7324;SDS011;3703;48.016;7.802;2022-07-29T07:00:47;5.93;;;4.37;;
7324;SDS011;3703;48.016;7.802;2022-07-29T07:03:34;5.70;;;4.20;;
7324;SDS011;3703;48.016;7.802;2022-07-29T07:06:23;5.27;;;3.70;;
7324;SDS011;3703;48.016;7.802;2022-07-29T07:09:12;4.03;;;3.57;;
7324;SDS011;3703;48.016;7.802;2022-07-29T07:12:00;3.87;;;3.47;;
7324;SDS011;3703;48.016;7.802;2022-07-29T07:14:47;6.00;;;4.27;;
7324;SDS011;3703;48.016;7.802;2022-07-29T07:17:35;4.40;;;4.00;;
7324;SDS011;3703;48.016;7.802;2022-07-29T07:20:24;4.73;;;4.20;;
7324;SDS011;3703;48.016;7.802;2022-07-29T07:23:12;6.37;;;4.30;;
7324;SDS011;3703;48.016;7.802;2022-07-29T07:26:01;5.93;;;4.27;;
7324;SDS011;3703;48.016;7.802;2022-07-29T07:28:48;4.53;;;4.07;;
7324;SDS011;3703;48.016;7.802;2022-07-29T07:31:36;6.37;;;4.60;;
7324;SDS011;3703;48.016;7.802;2022-07-29T07:34:24;4.67;;;4.27;;
7324;SDS011;3703;48.016;7.802;2022-07-29T07:37:12;5.43;;;4.63;;
7324;SDS011;3703;48.016;7.802;2022-07-29T07:40:00;5.07;;;4.50;;
7324;SDS011;3703;48.016;7.802;2022-07-29T07:42:50;6.73;;;4.63;;
7324;SDS011;3703;48.016;7.802;2022-07-29T07:45:37;7.17;;;4.47;;
7324;SDS011;3703;48.016;7.802;2022-07-29T07:48:25;6.13;;;4.53;;
7324;SDS011;3703;48.016;7.802;2022-07-29T07:51:13;6.03;;;4.80;;
7324;SDS011;3703;48.016;7.802;2022-07-29T07:54:00;9.03;;;4.97;;
7324;SDS011;3703;48.016;7.802;2022-07-29T07:56:48;6.03;;;4.67;;
7324;SDS011;3703;48.016;7.802;2022-07-29T07:59:37;7.47;;;5.27;;
7324;SDS011;3703;48.016;7.802;2022-07-29T08:02:25;4.80;;;4.30;;
7324;SDS011;3703;48.016;7.802;2022-07-29T08:05:13;4.97;;;4.30;;
7324;SDS011;3703;48.016;7.802;2022-07-29T08:08:03;5.87;;;4.70;;
7324;SDS011;3703;48.016;7.802;2022-07-29T08:10:51;6.30;;;4.97;;
7324;SDS011;3703;48.016;7.802;2022-07-29T08:13:39;4.77;;;4.27;;
7324;SDS011;3703;48.016;7.802;2022-07-29T08:16:28;5.40;;;4.50;;
7324;SDS011;3703;48.016;7.802;2022-07-29T08:19:15;6.20;;;4.40;;
7324;SDS011;3703;48.016;7.802;2022-07-29T08:22:03;4.87;;;4.37;;
7324;SDS011;3703;48.016;7.802;2022-07-29T08:24:50;4.67;;;4.20;;
7324;SDS011;3703;48.016;7.802;2022-07-29T08:27:41;5.43;;;4.40;;
7324;SDS011;3703;48.016;7.802;2022-07-29T08:30:29;6.23;;;4.43;;
7324;SDS011;3703;48.016;7.802;2022-07-29T08:33:19;5.33;;;3.93;;
7324;SDS011;3703;48.016;7.802;2022-07-29T08:36:06;9.00;;;4.63;;
7324;SDS011;3703;48.016;7.802;2022-07-29T08:38:54;10.27;;;4.60;;
7324;SDS011;3703;48.016;7.802;2022-07-29T08:41:42;5.80;;;4.10;;
7324;SDS011;3703;48.016;7.802;2022-07-29T08:44:29;4.80;;;4.30;;
7324;SDS011;3703;48.016;7.802;2022-07-29T08:47:19;4.90;;;4.10;;
7324;SDS011;3703;48.016;7.802;2022-07-29T08:50:09;7.40;;;4.30;;
7324;SDS011;3703;48.016;7.802;2022-07-29T08:52:57;6.73;;;4.00;;
7324;SDS011;3703;48.016;7.802;2022-07-29T08:55:45;5.80;;;4.20;;
7324;SDS011;3703;48.016;7.802;2022-07-29T08:58:35;5.33;;;3.97;;
7324;SDS011;3703;48.016;7.802;2022-07-29T09:01:24;6.03;;;4.37;;
7324;SDS011;3703;48.016;7.802;2022-07-29T09:04:14;5.57;;;3.60;;
7324;SDS011;3703;48.016;7.802;2022-07-29T09:07:04;5.60;;;3.60;;
7324;SDS011;3703;48.016;7.802;2022-07-29T09:09:53;5.00;;;3.50;;
7324;SDS011;3703;48.016;7.802;2022-07-29T09:12:41;4.00;;;3.60;;
7324;SDS011;3703;48.016;7.802;2022-07-29T09:15:29;4.47;;;3.40;;
7324;SDS011;3703;48.016;7.802;2022-07-29T09:18:32;4.30;;;3.23;;
7324;SDS011;3703;48.016;7.802;2022-07-29T09:21:21;4.43;;;3.60;;
7324;SDS011;3703;48.016;7.802;2022-07-29T09:24:37;3.90;;;3.50;;
7324;SDS011;3703;48.016;7.802;2022-07-29T09:27:27;6.20;;;4.17;;
7324;SDS011;3703;48.016;7.802;2022-07-29T09:30:15;4.97;;;4.03;;
7324;SDS011;3703;48.016;7.802;2022-07-29T09:33:03;3.97;;;3.57;;
7324;SDS011;3703;48.016;7.802;2022-07-29T09:35:58;5.23;;;4.00;;
7324;SDS011;3703;48.016;7.802;2022-07-29T09:38:56;4.13;;;3.60;;
7324;SDS011;3703;48.016;7.802;2022-07-29T09:41:48;4.80;;;3.87;;
7324;SDS011;3703;48.016;7.802;2022-07-29T09:44:42;5.43;;;3.90;;
7324;SDS011;3703;48.016;7.802;2022-07-29T09:47:43;4.53;;;3.57;;
7324;SDS011;3703;48.016;7.802;2022-07-29T09:50:35;4.63;;;3.73;;
7324;SDS011;3703;48.016;7.802;2022-07-29T09:53:30;4.10;;;3.67;;
7324;SDS011;3703;48.016;7.802;2022-07-29T09:56:20;5.43;;;4.00;;
7324;SDS011;3703;48.016;7.802;2022-07-29T09:59:27;5.63;;;3.47;;
7324;SDS011;3703;48.016;7.802;2022-07-29T10:02:14;6.17;;;3.70;;
7324;SDS011;3703;48.016;7.802;2022-07-29T10:05:04;4.43;;;3.83;;
7324;SDS011;3703;48.016;7.802;2022-07-29T10:07:56;6.20;;;3.50;;
7324;SDS011;3703;48.016;7.802;2022-07-29T10:10:44;5.87;;;3.40;;
7324;SDS011;3703;48.016;7.802;2022-07-29T10:13:32;5.33;;;3.80;;
7324;SDS011;3703;48.016;7.802;2022-07-29T10:16:21;5.37;;;4.00;;
7324;SDS011;3703;48.016;7.802;2022-07-29T10:19:10;6.20;;;4.20;;
7324;SDS011;3703;48.016;7.802;2022-07-29T10:21:58;6.07;;;3.90;;
7324;SDS011;3703;48.016;7.802;2022-07-29T10:24:47;4.73;;;3.77;;
7324;SDS011;3703;48.016;7.802;2022-07-29T10:27:35;5.97;;;3.93;;
7324;SDS011;3703;48.016;7.802;2022-07-29T10:30:24;4.73;;;3.57;;
7324;SDS011;3703;48.016;7.802;2022-07-29T10:33:21;4.03;;;3.60;;
7324;SDS011;3703;48.016;7.802;2022-07-29T10:36:31;4.40;;;4.00;;
7324;SDS011;3703;48.016;7.802;2022-07-29T10:39:33;5.33;;;3.90;;
7324;SDS011;3703;48.016;7.802;2022-07-29T10:42:35;5.97;;;4.00;;
7324;SDS011;3703;48.016;7.802;2022-07-29T10:45:28;7.10;;;4.00;;
7324;SDS011;3703;48.016;7.802;2022-07-29T10:48:16;4.60;;;3.97;;
7324;SDS011;3703;48.016;7.802;2022-07-29T10:51:06;6.33;;;4.07;;
7324;SDS011;3703;48.016;7.802;2022-07-29T10:53:53;5.63;;;3.83;;
7324;SDS011;3703;48.016;7.802;2022-07-29T10:56:42;5.83;;;4.00;;
7324;SDS011;3703;48.016;7.802;2022-07-29T10:59:29;7.17;;;4.07;;
7324;SDS011;3703;48.016;7.802;2022-07-29T11:08:43;4.90;;;3.80;;
7324;SDS011;3703;48.016;7.802;2022-07-29T11:11:31;8.70;;;4.10;;
7324;SDS011;3703;48.016;7.802;2022-07-29T11:14:24;4.77;;;3.97;;
7324;SDS011;3703;48.016;7.802;2022-07-29T11:18:07;5.97;;;4.23;;
7324;SDS011;3703;48.016;7.802;2022-07-29T11:20:57;5.47;;;3.93;;
7324;SDS011;3703;48.016;7.802;2022-07-29T11:23:45;7.27;;;4.33;;
7324;SDS011;3703;48.016;7.802;2022-07-29T11:26:33;4.60;;;4.00;;
7324;SDS011;3703;48.016;7.802;2022-07-29T11:29:21;6.33;;;3.70;;
7324;SDS011;3703;48.016;7.802;2022-07-29T11:32:10;6.93;;;4.50;;
7324;SDS011;3703;48.016;7.802;2022-07-29T11:35:14;4.93;;;3.87;;
7324;SDS011;3703;48.016;7.802;2022-07-29T11:38:25;7.23;;;3.77;;
7324;SDS011;3703;48.016;7.802;2022-07-29T11:41:23;7.17;;;3.97;;
7324;SDS011;3703;48.016;7.802;2022-07-29T11:44:14;4.77;;;4.33;;
7324;SDS011;3703;48.016;7.802;2022-07-29T11:47:02;7.13;;;4.23;;
7324;SDS011;3703;48.016;7.802;2022-07-29T11:49:50;6.90;;;4.37;;
7324;SDS011;3703;48.016;7.802;2022-07-29T11:52:40;5.77;;;4.10;;
7324;SDS011;3703;48.016;7.802;2022-07-29T11:55:32;4.30;;;3.77;;
7324;SDS011;3703;48.016;7.802;2022-07-29T11:58:23;5.33;;;4.27;;
7324;SDS011;3703;48.016;7.802;2022-07-29T12:01:12;4.23;;;3.80;;
7324;SDS011;3703;48.016;7.802;2022-07-29T12:04:03;4.60;;;3.47;;
7324;SDS011;3703;48.016;7.802;2022-07-29T12:06:52;5.73;;;4.10;;
7324;SDS011;3703;48.016;7.802;2022-07-29T12:09:47;5.60;;;4.17;;
7324;SDS011;3703;48.016;7.802;2022-07-29T12:12:38;9.27;;;4.37;;
7324;SDS011;3703;48.016;7.802;2022-07-29T12:15:26;6.03;;;3.83;;
7324;SDS011;3703;48.016;7.802;2022-07-29T12:18:14;8.20;;;4.10;;
7324;SDS011;3703;48.016;7.802;2022-07-29T12:21:05;5.87;;;3.87;;
7324;SDS011;3703;48.016;7.802;2022-07-29T12:23:54;6.23;;;3.73;;
7324;SDS011;3703;48.016;7.802;2022-07-29T12:26:49;4.43;;;4.03;;
7324;SDS011;3703;48.016;7.802;2022-07-29T12:29:38;6.40;;;4.30;;
7324;SDS011;3703;48.016;7.802;2022-07-29T12:32:30;5.23;;;3.80;;
7324;SDS011;3703;48.016;7.802;2022-07-29T12:35:20;4.23;;;3.83;;
7324;SDS011;3703;48.016;7.802;2022-07-29T12:38:09;4.50;;;3.53;;
7324;SDS011;3703;48.016;7.802;2022-07-29T12:40:58;7.17;;;4.00;;
7324;SDS011;3703;48.016;7.802;2022-07-29T12:43:54;10.87;;;4.13;;
7324;SDS011;3703;48.016;7.802;2022-07-29T12:46:44;5.87;;;4.20;;
7324;SDS011;3703;48.016;7.802;2022-07-29T12:49:33;7.00;;;4.00;;
7324;SDS011;3703;48.016;7.802;2022-07-29T12:52:27;7.20;;;3.83;;
7324;SDS011;3703;48.016;7.802;2022-07-29T12:55:31;6.60;;;4.20;;
7324;SDS011;3703;48.016;7.802;2022-07-29T12:58:29;5.77;;;4.10;;
7324;SDS011;3703;48.016;7.802;2022-07-29T13:01:19;5.37;;;3.57;;
7324;SDS011;3703;48.016;7.802;2022-07-29T13:04:09;11.97;;;3.80;;
7324;SDS011;3703;48.016;7.802;2022-07-29T13:07:00;5.83;;;3.77;;
7324;SDS011;3703;48.016;7.802;2022-07-29T13:09:52;4.37;;;3.80;;
7324;SDS011;3703;48.016;7.802;2022-07-29T13:16:04;3.93;;;3.50;;
7324;SDS011;3703;48.016;7.802;2022-07-29T13:19:03;10.07;;;3.83;;
7324;SDS011;3703;48.016;7.802;2022-07-29T13:21:58;5.10;;;3.47;;
7324;SDS011;3703;48.016;7.802;2022-07-29T13:24:49;4.97;;;3.67;;
7324;SDS011;3703;48.016;7.802;2022-07-29T13:27:38;4.70;;;3.70;;
7324;SDS011;3703;48.016;7.802;2022-07-29T13:30:26;4.43;;;3.40;;
7324;SDS011;3703;48.016;7.802;2022-07-29T13:33:14;5.80;;;3.20;;
7324;SDS011;3703;48.016;7.802;2022-07-29T13:36:03;6.90;;;3.53;;
7324;SDS011;3703;48.016;7.802;2022-07-29T13:38:51;6.40;;;3.27;;
7324;SDS011;3703;48.016;7.802;2022-07-29T13:41:39;7.40;;;3.33;;
7324;SDS011;3703;48.016;7.802;2022-07-29T13:44:26;3.30;;;3.00;;
7324;SDS011;3703;48.016;7.802;2022-07-29T13:47:14;3.67;;;3.23;;
7324;SDS011;3703;48.016;7.802;2022-07-29T13:50:02;7.83;;;4.20;;
7324;SDS011;3703;48.016;7.802;2022-07-29T13:52:53;9.07;;;3.57;;
7324;SDS011;3703;48.016;7.802;2022-07-29T13:55:41;4.13;;;3.20;;
7324;SDS011;3703;48.016;7.802;2022-07-29T13:58:29;4.40;;;3.40;;
7324;SDS011;3703;48.016;7.802;2022-07-29T14:01:17;4.60;;;3.50;;
7324;SDS011;3703;48.016;7.802;2022-07-29T14:04:04;4.77;;;3.50;;
7324;SDS011;3703;48.016;7.802;2022-07-29T14:06:52;7.93;;;3.87;;
7324;SDS011;3703;48.016;7.802;2022-07-29T14:09:41;7.30;;;3.10;;
7324;SDS011;3703;48.016;7.802;2022-07-29T14:12:29;4.07;;;3.00;;
7324;SDS011;3703;48.016;7.802;2022-07-29T14:15:17;5.73;;;3.43;;
7324;SDS011;3703;48.016;7.802;2022-07-29T14:18:05;12.40;;;3.73;;
7324;SDS011;3703;48.016;7.802;2022-07-29T14:20:53;6.50;;;3.00;;
7324;SDS011;3703;48.016;7.802;2022-07-29T14:23:41;5.33;;;3.07;;
7324;SDS011;3703;48.016;7.802;2022-07-29T14:26:30;3.23;;;2.83;;
7324;SDS011;3703;48.016;7.802;2022-07-29T14:29:18;5.73;;;3.20;;
7324;SDS011;3703;48.016;7.802;2022-07-29T14:32:06;4.73;;;2.90;;
7324;SDS011;3703;48.016;7.802;2022-07-29T14:34:55;3.60;;;3.00;;
7324;SDS011;3703;48.016;7.802;2022-07-29T14:37:43;3.90;;;3.27;;
7324;SDS011;3703;48.016;7.802;2022-07-29T14:40:30;6.47;;;2.77;;
7324;SDS011;3703;48.016;7.802;2022-07-29T14:43:19;3.67;;;2.53;;
7324;SDS011;3703;48.016;7.802;2022-07-29T14:46:07;4.90;;;3.00;;
7324;SDS011;3703;48.016;7.802;2022-07-29T14:48:55;2.90;;;2.40;;
7324;SDS011;3703;48.016;7.802;2022-07-29T14:51:43;2.83;;;2.50;;
7324;SDS011;3703;48.016;7.802;2022-07-29T14:54:30;2.60;;;2.40;;
7324;SDS011;3703;48.016;7.802;2022-07-29T14:57:18;5.90;;;2.40;;
7324;SDS011;3703;48.016;7.802;2022-07-29T15:00:08;3.87;;;2.23;;
7324;SDS011;3703;48.016;7.802;2022-07-29T15:02:57;5.27;;;2.67;;
7324;SDS011;3703;48.016;7.802;2022-07-29T15:05:45;4.13;;;1.90;;
7324;SDS011;3703;48.016;7.802;2022-07-29T15:08:33;6.43;;;2.30;;
7324;SDS011;3703;48.016;7.802;2022-07-29T15:11:20;3.80;;;2.83;;
7324;SDS011;3703;48.016;7.802;2022-07-29T15:14:08;3.97;;;2.10;;
7324;SDS011;3703;48.016;7.802;2022-07-29T15:16:57;3.63;;;2.47;;
7324;SDS011;3703;48.016;7.802;2022-07-29T15:19:45;2.73;;;2.30;;
7324;SDS011;3703;48.016;7.802;2022-07-29T15:22:33;3.27;;;2.20;;
7324;SDS011;3703;48.016;7.802;2022-07-29T15:25:22;5.10;;;2.33;;
7324;SDS011;3703;48.016;7.802;2022-07-29T15:28:10;3.33;;;2.30;;
7324;SDS011;3703;48.016;7.802;2022-07-29T15:30:58;3.37;;;2.10;;
7324;SDS011;3703;48.016;7.802;2022-07-29T15:33:47;4.73;;;2.30;;
7324;SDS011;3703;48.016;7.802;2022-07-29T15:36:34;4.40;;;2.40;;
7324;SDS011;3703;48.016;7.802;2022-07-29T15:39:22;4.43;;;2.60;;
7324;SDS011;3703;48.016;7.802;2022-07-29T15:42:10;4.23;;;2.20;;
7324;SDS011;3703;48.016;7.802;2022-07-29T15:44:58;3.17;;;2.00;;
7324;SDS011;3703;48.016;7.802;2022-07-29T15:47:48;4.07;;;2.40;;
7324;SDS011;3703;48.016;7.802;2022-07-29T15:50:37;3.47;;;2.10;;
7324;SDS011;3703;48.016;7.802;2022-07-29T15:53:25;2.50;;;2.20;;
7324;SDS011;3703;48.016;7.802;2022-07-29T15:56:12;3.23;;;2.33;;
7324;SDS011;3703;48.016;7.802;2022-07-29T15:59:00;2.30;;;2.10;;
7324;SDS011;3703;48.016;7.802;2022-07-29T16:01:48;2.93;;;2.10;;
7324;SDS011;3703;48.016;7.802;2022-07-29T16:04:35;3.40;;;2.30;;
7324;SDS011;3703;48.016;7.802;2022-07-29T16:07:25;2.50;;;2.30;;
7324;SDS011;3703;48.016;7.802;2022-07-29T16:10:12;3.40;;;2.10;;
7324;SDS011;3703;48.016;7.802;2022-07-29T16:13:00;4.30;;;2.10;;
7324;SDS011;3703;48.016;7.802;2022-07-29T16:15:47;7.20;;;1.97;;
7324;SDS011;3703;48.016;7.802;2022-07-29T16:18:35;3.90;;;2.10;;
7324;SDS011;3703;48.016;7.802;2022-07-29T16:21:23;4.03;;;2.20;;
7324;SDS011;3703;48.016;7.802;2022-07-29T16:24:12;1.87;;;1.77;;
7324;SDS011;3703;48.016;7.802;2022-07-29T16:27:00;2.53;;;1.93;;
7324;SDS011;3703;48.016;7.802;2022-07-29T16:29:47;5.93;;;2.13;;
7324;SDS011;3703;48.016;7.802;2022-07-29T16:32:35;4.70;;;2.20;;
7324;SDS011;3703;48.016;7.802;2022-07-29T16:35:24;2.43;;;1.90;;
7324;SDS011;3703;48.016;7.802;2022-07-29T16:38:12;2.40;;;2.20;;
7324;SDS011;3703;48.016;7.802;2022-07-29T16:41:01;2.70;;;1.80;;
7324;SDS011;3703;48.016;7.802;2022-07-29T16:43:48;3.07;;;2.17;;
7324;SDS011;3703;48.016;7.802;2022-07-29T16:46:36;3.20;;;1.93;;
7324;SDS011;3703;48.016;7.802;2022-07-29T16:49:24;3.27;;;2.00;;
7324;SDS011;3703;48.016;7.802;2022-07-29T16:52:12;3.43;;;1.83;;
7324;SDS011;3703;48.016;7.802;2022-07-29T16:54:59;2.43;;;1.83;;
7324;SDS011;3703;48.016;7.802;2022-07-29T16:57:48;3.63;;;2.07;;
7324;SDS011;3703;48.016;7.802;2022-07-29T17:00:37;2.53;;;2.23;;
7324;SDS011;3703;48.016;7.802;2022-07-29T17:03:24;3.43;;;2.10;;
7324;SDS011;3703;48.016;7.802;2022-07-29T17:06:12;2.47;;;1.90;;
7324;SDS011;3703;48.016;7.802;2022-07-29T17:09:00;2.20;;;1.93;;
7324;SDS011;3703;48.016;7.802;2022-07-29T17:11:48;4.13;;;2.23;;
7324;SDS011;3703;48.016;7.802;2022-07-29T17:14:39;2.17;;;1.97;;
7324;SDS011;3703;48.016;7.802;2022-07-29T17:17:27;3.73;;;2.40;;
7324;SDS011;3703;48.016;7.802;2022-07-29T17:20:15;3.70;;;1.90;;
7324;SDS011;3703;48.016;7.802;2022-07-29T17:23:03;3.67;;;2.10;;
7324;SDS011;3703;48.016;7.802;2022-07-29T17:25:51;3.83;;;2.20;;
7324;SDS011;3703;48.016;7.802;2022-07-29T17:28:38;3.10;;;2.00;;
7324;SDS011;3703;48.016;7.802;2022-07-29T17:31:28;3.43;;;1.90;;
7324;SDS011;3703;48.016;7.802;2022-07-29T17:34:16;2.73;;;2.00;;
7324;SDS011;3703;48.016;7.802;2022-07-29T17:37:05;2.20;;;2.00;;
7324;SDS011;3703;48.016;7.802;2022-07-29T17:39:55;2.50;;;2.00;;
7324;SDS011;3703;48.016;7.802;2022-07-29T17:42:42;2.67;;;1.77;;
7324;SDS011;3703;48.016;7.802;2022-07-29T17:45:30;3.17;;;1.87;;